createdAt,value
2019-06-27T00:00:13.157Z,79.93
2019-06-27T00:02:42.198Z,79.57
2019-06-27T00:05:11.428Z,79.25
2019-06-27T00:07:40.544Z,80.53
2019-06-27T00:10:09.919Z,81.51
2019-06-27T00:12:38.953Z,81.27
2019-06-27T00:15:08.074Z,81.11
2019-06-27T00:17:37.113Z,80.35
2019-06-27T00:20:06.184Z,80.35
2019-06-27T00:22:35.296Z,79.44
2019-06-27T00:25:04.578Z,80.23
2019-06-27T00:30:01.719Z,80.67
2019-06-27T00:32:30.817Z,80.89
2019-06-27T00:34:59.815Z,81.06
2019-06-27T00:37:28.867Z,81.08
2019-06-27T00:40:01.545Z,81.33
2019-06-27T00:42:30.632Z,80.86
2019-06-27T00:44:59.675Z,80.92
2019-06-27T00:47:28.819Z,80.94
2019-06-27T00:49:57.866Z,81.12
2019-06-27T00:52:29.015Z,81.49
2019-06-27T00:54:58.054Z,81.41
2019-06-27T00:57:27.086Z,82.67
2019-06-27T00:59:56.174Z,82.98
2019-06-27T01:02:25.276Z,83.13
2019-06-27T01:04:54.319Z,82.45
2019-06-27T01:07:23.357Z,83.06
2019-06-27T01:09:52.416Z,83.19
2019-06-27T01:12:21.498Z,83.92
2019-06-27T01:14:50.527Z,84.52
2019-06-27T01:17:19.618Z,84.27
2019-06-27T01:19:48.991Z,83.27
2019-06-27T01:22:18.079Z,83.64
2019-06-27T01:24:47.144Z,83.81
2019-06-27T01:27:29.137Z,83.91
2019-06-27T01:29:46.993Z,84.00
2019-06-27T01:32:16.109Z,84.28
2019-06-27T01:34:45.167Z,84.45
2019-06-27T01:37:14.221Z,84.27
2019-06-27T01:39:43.345Z,84.41
2019-06-27T01:42:12.418Z,85.28
2019-06-27T01:44:55.174Z,84.91
2019-06-27T01:47:24.290Z,85.08
2019-06-27T01:49:53.313Z,85.55
2019-06-27T01:52:23.938Z,85.20
2019-06-27T01:54:53.016Z,85.50
2019-06-27T01:57:22.097Z,85.39
2019-06-27T01:59:51.147Z,84.82
2019-06-27T02:02:20.245Z,84.67
2019-06-27T02:04:49.295Z,85.15
2019-06-27T02:07:19.524Z,84.80
2019-06-27T02:09:48.605Z,85.26
2019-06-27T02:12:17.664Z,85.24
2019-06-27T02:14:46.742Z,85.15
2019-06-27T02:17:15.854Z,85.59
2019-06-27T02:19:44.910Z,85.96
2019-06-27T02:22:13.958Z,86.18
2019-06-27T02:24:43.166Z,86.26
2019-06-27T02:27:12.222Z,86.79
2019-06-27T02:29:41.248Z,86.99
2019-06-27T02:32:10.301Z,86.65
2019-06-27T02:34:39.380Z,86.48
2019-06-27T02:37:08.391Z,86.98
2019-06-27T02:39:37.458Z,86.67
2019-06-27T02:42:08.781Z,87.23
2019-06-27T02:44:37.881Z,88.01
2019-06-27T02:47:06.925Z,88.25
2019-06-27T02:49:36.027Z,88.60
2019-06-27T02:52:05.094Z,88.18
2019-06-27T02:54:34.148Z,87.07
2019-06-27T02:57:03.181Z,86.60
2019-06-27T02:59:32.279Z,86.25
2019-06-27T03:02:01.351Z,87.80
2019-06-27T03:04:30.394Z,87.87
2019-06-27T03:06:59.427Z,87.87
2019-06-27T03:09:28.483Z,87.19
2019-06-27T03:12:00.281Z,87.39
2019-06-27T03:14:28.433Z,87.24
2019-06-27T03:16:57.469Z,87.74
2019-06-27T03:19:26.553Z,87.42
2019-06-27T03:21:55.570Z,88.00
2019-06-27T03:24:24.689Z,88.34
2019-06-27T03:26:53.715Z,87.83
2019-06-27T03:29:22.790Z,87.78
2019-06-27T03:31:51.840Z,87.62
2019-06-27T03:34:20.893Z,87.96
2019-06-27T03:36:49.935Z,88.17
2019-06-27T03:39:19.040Z,88.52
2019-06-27T03:41:49.137Z,88.98
2019-06-27T03:44:18.293Z,89.45
2019-06-27T03:46:47.350Z,88.95
2019-06-27T03:49:16.462Z,89.02
2019-06-27T03:51:45.457Z,88.27
2019-06-27T03:54:14.528Z,87.81
2019-06-27T03:56:43.610Z,86.95
2019-06-27T03:59:13.985Z,88.96
2019-06-27T04:01:45.568Z,88.43
2019-06-27T04:04:14.656Z,87.96
2019-06-27T04:06:43.743Z,87.10
2019-06-27T04:09:14.600Z,86.45
2019-06-27T04:11:43.694Z,87.67
2019-06-27T04:14:12.717Z,86.91
2019-06-27T04:16:41.917Z,86.83
2019-06-27T04:19:13.328Z,86.52
2019-06-27T04:21:42.456Z,86.67
2019-06-27T04:24:11.573Z,85.87
2019-06-27T04:26:40.795Z,86.42
2019-06-27T04:29:09.855Z,85.59
2019-06-27T04:31:38.893Z,84.42
2019-06-27T04:34:07.971Z,84.52
2019-06-27T04:36:37.058Z,83.21
2019-06-27T04:39:06.440Z,82.19
2019-06-27T04:41:35.517Z,82.41
2019-06-27T04:44:04.606Z,81.60
2019-06-27T04:46:33.715Z,80.73
2019-06-27T04:49:02.749Z,82.35
2019-06-27T04:51:31.802Z,80.51
2019-06-27T04:54:00.844Z,79.73
2019-06-27T04:56:29.925Z,78.48
2019-06-27T04:58:58.989Z,78.02
2019-06-27T05:01:28.040Z,78.37
2019-06-27T05:03:57.106Z,75.83
2019-06-27T05:06:26.150Z,77.14
2019-06-27T05:08:55.200Z,77.01
2019-06-27T05:11:24.273Z,76.12
2019-06-27T05:13:53.368Z,75.72
2019-06-27T05:16:22.401Z,74.89
2019-06-27T05:18:51.415Z,72.89
2019-06-27T05:21:20.493Z,74.54
2019-06-27T05:23:50.378Z,70.66
2019-06-27T05:26:19.453Z,72.71
2019-06-27T05:28:48.484Z,70.13
2019-06-27T05:31:17.565Z,70.11
2019-06-27T05:33:46.583Z,68.65
2019-06-27T05:36:15.687Z,69.25
2019-06-27T05:38:44.658Z,67.64
2019-06-27T05:41:13.746Z,72.30
2019-06-27T05:43:42.740Z,72.10
2019-06-27T05:46:11.842Z,71.86
2019-06-27T05:48:40.925Z,70.89
2019-06-27T05:51:09.923Z,67.81
2019-06-27T05:53:38.943Z,69.37
2019-06-27T05:56:11.120Z,68.28
2019-06-27T05:58:40.146Z,68.60
2019-06-27T06:01:09.209Z,69.13
2019-06-27T06:03:38.264Z,64.97
2019-06-27T06:06:07.287Z,66.40
2019-06-27T06:08:36.429Z,65.51
2019-06-27T06:11:05.434Z,65.16
2019-06-27T06:13:34.547Z,67.86
2019-06-27T06:16:03.600Z,64.71
2019-06-27T06:18:32.644Z,63.34
2019-06-27T06:21:01.657Z,58.77
2019-06-27T06:23:30.671Z,59.64
2019-06-27T06:25:59.702Z,59.74
2019-06-27T06:28:28.715Z,58.84
2019-06-27T06:30:57.786Z,57.14
2019-06-27T06:33:26.802Z,54.48
2019-06-27T06:35:55.895Z,54.83
2019-06-27T06:38:25.003Z,55.36
2019-06-27T06:40:54.046Z,56.76
2019-06-27T06:43:23.157Z,54.63
2019-06-27T06:45:53.738Z,53.38
2019-06-27T06:48:22.805Z,57.46
2019-06-27T06:50:51.859Z,52.54
2019-06-27T06:53:20.879Z,53.30
2019-06-27T06:55:49.852Z,51.57
2019-06-27T06:58:18.929Z,53.47
2019-06-27T07:01:01.090Z,54.29
2019-06-27T07:03:18.692Z,53.79
2019-06-27T07:05:47.737Z,51.34
2019-06-27T07:08:16.828Z,50.51
2019-06-27T07:10:46.019Z,51.00
2019-06-27T07:13:15.076Z,50.09
2019-06-27T07:15:44.113Z,49.08
2019-06-27T07:18:13.254Z,48.16
2019-06-27T07:20:42.371Z,46.72
2019-06-27T07:23:11.426Z,49.51
2019-06-27T07:25:40.487Z,50.61
2019-06-27T07:28:09.554Z,46.49
2019-06-27T07:30:38.606Z,45.95
2019-06-27T07:33:10.203Z,47.11
2019-06-27T07:35:43.566Z,47.17
2019-06-27T07:38:12.654Z,46.28
2019-06-27T07:40:42.806Z,47.38
2019-06-27T07:43:11.921Z,44.62
2019-06-27T07:45:40.977Z,45.21
2019-06-27T07:48:12.339Z,45.63
2019-06-27T07:50:41.357Z,48.72
2019-06-27T07:53:14.173Z,49.17
2019-06-27T07:55:44.935Z,44.92
2019-06-27T07:58:13.999Z,46.24
2019-06-27T08:00:44.937Z,45.95
2019-06-27T08:03:17.730Z,44.90
2019-06-27T08:05:46.846Z,41.87
2019-06-27T08:08:15.930Z,42.42
2019-06-27T08:10:46.488Z,41.76
2019-06-27T08:13:15.648Z,40.23
2019-06-27T08:15:44.694Z,41.64
2019-06-27T08:18:13.896Z,43.66
2019-06-27T08:20:43.023Z,43.40
2019-06-27T08:23:12.036Z,42.31
2019-06-27T08:25:41.062Z,44.51
2019-06-27T08:28:10.062Z,45.60
2019-06-27T08:30:39.089Z,46.32
2019-06-27T08:33:08.278Z,48.31
2019-06-27T08:35:37.346Z,45.76
2019-06-27T08:38:08.255Z,45.29
2019-06-27T08:40:37.382Z,44.50
2019-06-27T08:43:07.219Z,44.23
2019-06-27T08:45:36.356Z,42.68
2019-06-27T08:48:05.720Z,45.76
2019-06-27T08:50:35.039Z,44.75
2019-06-27T08:53:04.092Z,45.33
2019-06-27T08:58:07.255Z,43.65
2019-06-27T09:00:37.522Z,41.15
2019-06-27T09:03:06.655Z,38.46
2019-06-27T09:05:37.893Z,38.44
2019-06-27T09:08:10.832Z,38.35
2019-06-27T09:10:41.023Z,36.40
2019-06-27T09:13:10.638Z,36.97
2019-06-27T09:15:39.735Z,36.06
2019-06-27T09:18:09.569Z,36.63
2019-06-27T09:20:39.478Z,37.43
2019-06-27T09:23:08.518Z,37.36
2019-06-27T09:25:37.601Z,35.47
2019-06-27T09:28:06.668Z,35.29
2019-06-27T09:30:35.766Z,34.80
2019-06-27T09:33:04.801Z,33.90
2019-06-27T09:35:35.886Z,36.03
2019-06-27T09:38:06.926Z,35.07
2019-06-27T09:40:37.367Z,34.72
2019-06-27T09:43:06.448Z,35.72
2019-06-27T09:45:35.786Z,34.13
2019-06-27T09:48:04.815Z,35.35
2019-06-27T09:50:34.971Z,35.05
2019-06-27T09:53:04.044Z,35.54
2019-06-27T09:55:33.143Z,35.96
2019-06-27T09:58:02.187Z,35.33
2019-06-27T10:00:31.257Z,37.29
2019-06-27T10:03:00.268Z,35.71
2019-06-27T10:05:31.667Z,34.48
2019-06-27T10:08:00.745Z,32.76
2019-06-27T10:10:29.808Z,33.67
2019-06-27T10:12:58.840Z,34.65
2019-06-27T10:15:28.189Z,36.09
2019-06-27T10:17:57.270Z,34.87
2019-06-27T10:20:26.312Z,34.49
2019-06-27T10:22:55.325Z,33.98
2019-06-27T10:25:24.378Z,34.90
2019-06-27T10:27:54.024Z,34.82
2019-06-27T10:30:23.097Z,36.81
2019-06-27T10:32:59.240Z,34.64
2019-06-27T10:35:22.979Z,38.29
2019-06-27T10:37:52.065Z,35.67
2019-06-27T10:40:21.104Z,37.64
2019-06-27T10:42:50.146Z,36.61
2019-06-27T10:45:20.783Z,35.76
2019-06-27T10:47:49.896Z,33.64
2019-06-27T10:50:18.973Z,34.73
2019-06-27T10:52:48.092Z,33.85
2019-06-27T10:55:17.487Z,33.23
2019-06-27T10:57:46.538Z,32.70
2019-06-27T11:00:16.121Z,35.65
2019-06-27T11:02:45.193Z,34.73
2019-06-27T11:05:14.304Z,33.84
2019-06-27T11:07:43.350Z,32.82
2019-06-27T11:10:12.420Z,34.22
2019-06-27T11:12:44.874Z,34.08
2019-06-27T11:15:13.334Z,32.33
2019-06-27T11:17:42.417Z,33.37
2019-06-27T11:20:15.464Z,32.74
2019-06-27T11:22:44.805Z,33.43
2019-06-27T11:25:15.122Z,33.93
2019-06-27T11:27:44.145Z,34.27
2019-06-27T11:30:13.193Z,35.23
2019-06-27T11:32:42.267Z,33.63
2019-06-27T11:35:11.409Z,33.06
2019-06-27T11:37:40.411Z,33.54
2019-06-27T11:40:12.360Z,32.11
2019-06-27T11:42:40.414Z,32.06
2019-06-27T11:45:09.410Z,31.06
2019-06-27T11:47:40.525Z,30.41
2019-06-27T11:50:09.981Z,31.70
2019-06-27T11:52:39.428Z,31.69
2019-06-27T11:55:08.506Z,29.09
2019-06-27T11:57:37.606Z,31.88
2019-06-27T12:00:06.630Z,30.62
2019-06-27T12:02:35.654Z,30.74
2019-06-27T12:05:04.812Z,31.03
2019-06-27T12:07:33.904Z,31.10
2019-06-27T12:10:02.972Z,31.27
2019-06-27T12:12:32.011Z,34.26
2019-06-27T12:15:01.026Z,31.67
2019-06-27T12:17:31.629Z,33.06
2019-06-27T12:20:00.673Z,30.23
2019-06-27T12:22:29.661Z,31.56
2019-06-27T12:24:58.723Z,33.62
2019-06-27T12:27:27.767Z,30.89
2019-06-27T12:29:56.789Z,31.69
2019-06-27T12:32:25.824Z,34.42
2019-06-27T12:34:54.864Z,32.90
2019-06-27T12:37:26.453Z,30.15
2019-06-27T12:39:55.522Z,29.97
2019-06-27T12:42:32.518Z,30.32
2019-06-27T12:45:00.545Z,28.50
2019-06-27T12:47:29.632Z,29.08
2019-06-27T12:50:02.676Z,30.28
2019-06-27T12:52:29.471Z,29.17
2019-06-27T12:55:00.034Z,27.99
2019-06-27T12:57:29.140Z,27.73
2019-06-27T12:59:58.574Z,29.76
2019-06-27T13:02:27.641Z,30.65
2019-06-27T13:04:56.702Z,31.77
2019-06-27T13:07:25.674Z,29.85
2019-06-27T13:09:54.779Z,28.21
2019-06-27T13:12:25.636Z,29.05
2019-06-27T13:14:57.002Z,29.62
2019-06-27T13:17:25.992Z,29.84
2019-06-27T13:19:57.413Z,31.89
2019-06-27T13:22:26.496Z,32.96
2019-06-27T13:24:55.572Z,30.54
2019-06-27T13:27:24.829Z,33.39
2019-06-27T13:29:53.889Z,32.40
2019-06-27T13:32:25.371Z,34.02
2019-06-27T13:34:53.767Z,35.82
2019-06-27T13:37:22.816Z,35.02
2019-06-27T13:39:51.942Z,33.85
2019-06-27T13:42:20.973Z,34.59
2019-06-27T13:44:50.458Z,34.79
2019-06-27T13:47:20.403Z,36.00
2019-06-27T13:49:49.631Z,37.07
2019-06-27T13:52:18.669Z,32.80
2019-06-27T13:54:47.769Z,33.63
2019-06-27T13:57:22.057Z,35.49
2019-06-27T13:59:51.180Z,34.00
2019-06-27T14:02:20.228Z,32.88
2019-06-27T14:04:56.902Z,32.33
2019-06-27T14:07:21.772Z,32.06
2019-06-27T14:09:56.660Z,31.61
2019-06-27T14:12:23.375Z,32.53
2019-06-27T14:14:59.778Z,33.73
2019-06-27T14:17:24.360Z,34.17
2019-06-27T14:19:53.414Z,33.13
2019-06-27T14:22:32.867Z,34.38
2019-06-27T14:24:54.728Z,33.59
2019-06-27T14:27:23.850Z,32.21
2019-06-27T14:29:56.448Z,32.64
2019-06-27T14:32:24.826Z,33.51
2019-06-27T14:34:53.952Z,32.50
2019-06-27T14:37:23.110Z,31.73
2019-06-27T14:39:52.124Z,32.31
2019-06-27T14:42:21.240Z,32.01
2019-06-27T14:44:50.274Z,33.16
2019-06-27T14:47:19.431Z,35.53
2019-06-27T14:49:48.714Z,33.86
2019-06-27T14:52:17.832Z,33.41
2019-06-27T14:54:47.512Z,33.71
2019-06-27T14:57:16.642Z,33.05
2019-06-27T14:59:46.792Z,33.12
2019-06-27T15:02:17.530Z,33.91
2019-06-27T15:04:46.762Z,33.23
2019-06-27T15:07:16.334Z,33.79
2019-06-27T15:09:45.373Z,32.60
2019-06-27T15:12:14.434Z,32.07
2019-06-27T15:14:43.508Z,33.20
2019-06-27T15:17:12.675Z,33.34
2019-06-27T15:19:41.775Z,32.67
2019-06-27T15:22:13.176Z,32.96
2019-06-27T15:24:42.259Z,34.02
2019-06-27T15:27:11.370Z,32.80
2019-06-27T15:29:40.400Z,32.97
2019-06-27T15:32:09.634Z,31.95
2019-06-27T15:34:38.881Z,32.67
2019-06-27T15:37:07.945Z,31.92
2019-06-27T15:39:37.771Z,32.19
2019-06-27T15:42:06.904Z,32.27
2019-06-27T15:44:35.960Z,32.34
2019-06-27T15:47:05.052Z,32.92
2019-06-27T15:49:34.158Z,33.44
2019-06-27T15:52:03.212Z,32.14
2019-06-27T15:54:32.225Z,32.20
2019-06-27T15:57:01.283Z,31.73
2019-06-27T15:59:30.406Z,31.79
2019-06-27T16:01:59.524Z,31.48
2019-06-27T16:04:34.234Z,30.95
2019-06-27T16:07:01.118Z,30.49
2019-06-27T16:09:30.163Z,30.14
2019-06-27T16:11:59.240Z,31.29
2019-06-27T16:14:28.244Z,30.51
2019-06-27T16:16:57.287Z,30.25
2019-06-27T16:19:26.327Z,30.00
2019-06-27T16:21:55.478Z,30.70
2019-06-27T16:24:24.589Z,31.68
2019-06-27T16:26:53.592Z,30.93
2019-06-27T16:29:22.634Z,31.14
2019-06-27T16:31:51.668Z,31.17
2019-06-27T16:34:22.310Z,31.81
2019-06-27T16:36:51.398Z,31.54
2019-06-27T16:39:20.500Z,31.65
2019-06-27T16:41:50.207Z,32.51
2019-06-27T16:44:19.287Z,32.08
2019-06-27T16:46:48.315Z,32.84
2019-06-27T16:49:17.411Z,32.40
2019-06-27T16:51:46.436Z,32.32
2019-06-27T16:54:15.511Z,31.48
2019-06-27T16:56:44.526Z,31.91
2019-06-27T16:59:13.595Z,31.86
2019-06-27T17:01:42.622Z,31.62
2019-06-27T17:04:11.700Z,31.44
2019-06-27T17:06:42.403Z,31.49
2019-06-27T17:09:11.556Z,31.52
2019-06-27T17:11:40.558Z,32.04
2019-06-27T17:14:09.670Z,32.08
2019-06-27T17:16:38.750Z,31.94
2019-06-27T17:19:07.903Z,32.19
2019-06-27T17:21:36.954Z,32.68
2019-06-27T17:24:06.536Z,32.43
2019-06-27T17:26:36.500Z,31.68
2019-06-27T17:29:05.676Z,32.29
2019-06-27T17:31:34.729Z,32.21
2019-06-27T17:34:03.816Z,33.12
2019-06-27T17:36:32.903Z,32.54
2019-06-27T17:39:02.170Z,32.09
2019-06-27T17:41:31.605Z,32.66
2019-06-27T17:44:00.664Z,32.98
2019-06-27T17:46:29.843Z,32.68
2019-06-27T17:49:00.762Z,32.08
2019-06-27T17:51:29.846Z,32.27
2019-06-27T17:53:58.915Z,32.49
2019-06-27T17:56:28.018Z,32.34
2019-06-27T17:58:57.484Z,32.06
2019-06-27T18:01:26.591Z,31.95
2019-06-27T18:03:55.673Z,32.31
2019-06-27T18:06:24.728Z,31.99
2019-06-27T18:08:53.797Z,31.61
2019-06-27T18:11:22.819Z,31.34
2019-06-27T18:13:51.868Z,30.85
2019-06-27T18:16:20.965Z,30.97
2019-06-27T18:18:51.202Z,31.63
2019-06-27T18:21:20.298Z,32.10
2019-06-27T18:23:49.652Z,31.17
2019-06-27T18:26:21.090Z,31.33
2019-06-27T18:28:50.155Z,31.25
2019-06-27T18:31:19.259Z,31.27
2019-06-27T18:33:48.312Z,31.71
2019-06-27T18:36:17.407Z,31.96
2019-06-27T18:38:46.450Z,32.46
2019-06-27T18:41:15.510Z,32.07
2019-06-27T18:43:44.604Z,31.61
2019-06-27T18:46:13.709Z,31.75
2019-06-27T18:48:42.960Z,31.02
2019-06-27T18:51:12.166Z,31.15
2019-06-27T18:53:41.173Z,31.54
2019-06-27T18:56:10.286Z,32.63
2019-06-27T18:58:40.214Z,32.38
2019-06-27T19:01:09.292Z,32.33
2019-06-27T19:03:38.650Z,32.34
2019-06-27T19:06:07.862Z,32.75
2019-06-27T19:08:37.222Z,32.32
2019-06-27T19:11:06.313Z,33.34
2019-06-27T19:13:35.385Z,33.18
2019-06-27T19:16:04.473Z,32.54
2019-06-27T19:18:44.798Z,32.90
2019-06-27T19:21:18.691Z,33.34
2019-06-27T19:24:05.143Z,33.96
2019-06-27T19:26:35.975Z,32.96
2019-06-27T19:29:05.068Z,32.73
2019-06-27T19:31:34.129Z,32.90
2019-06-27T19:34:03.246Z,33.29
2019-06-27T19:36:32.328Z,33.06
2019-06-27T19:39:01.362Z,33.04
2019-06-27T19:41:30.428Z,32.70
2019-06-27T19:43:59.518Z,32.61
2019-06-27T19:46:28.576Z,32.23
2019-06-27T19:48:57.721Z,32.20
2019-06-27T19:51:27.707Z,31.70
2019-06-27T19:53:58.076Z,31.86
2019-06-27T19:56:27.577Z,32.33
2019-06-27T19:58:57.200Z,32.53
2019-06-27T20:01:26.240Z,32.17
2019-06-27T20:03:55.289Z,32.26
2019-06-27T20:06:24.763Z,32.08
2019-06-27T20:08:53.823Z,32.44
2019-06-27T20:11:22.903Z,32.51
2019-06-27T20:13:51.926Z,32.51
2019-06-27T20:16:20.994Z,32.25
2019-06-27T20:18:50.034Z,32.47
2019-06-27T20:21:19.072Z,32.67
2019-06-27T20:23:48.090Z,32.44
2019-06-27T20:26:17.592Z,32.65
2019-06-27T20:28:46.642Z,32.35
2019-06-27T20:31:15.672Z,32.07
2019-06-27T20:33:44.728Z,32.31
2019-06-27T20:36:13.724Z,32.22
2019-06-27T20:38:42.827Z,32.45
2019-06-27T20:41:11.903Z,32.38
2019-06-27T20:43:42.829Z,33.07
2019-06-27T20:46:11.913Z,32.79
2019-06-27T20:48:41.021Z,34.42
2019-06-27T20:51:10.029Z,35.25
2019-06-27T20:53:39.121Z,35.55
2019-06-27T20:56:08.171Z,35.98
2019-06-27T20:58:39.553Z,36.47
2019-06-27T21:01:09.054Z,36.21
2019-06-27T21:03:40.060Z,36.41
2019-06-27T21:06:09.070Z,37.46
2019-06-27T21:08:50.779Z,37.14
2019-06-27T21:13:38.030Z,35.67
2019-06-27T21:16:07.105Z,35.29
2019-06-27T21:18:36.199Z,34.39
2019-06-27T21:21:05.273Z,34.68
2019-06-27T21:23:34.322Z,34.61
2019-06-27T21:26:03.385Z,34.47
2019-06-27T21:28:32.417Z,34.28
2019-06-27T21:31:01.470Z,34.28
2019-06-27T21:33:30.523Z,34.37
2019-06-27T21:35:59.540Z,34.37
2019-06-27T21:38:28.868Z,34.91
2019-06-27T21:40:59.416Z,34.88
2019-06-27T21:43:28.578Z,35.34
2019-06-27T21:45:57.675Z,35.63
2019-06-27T21:48:26.743Z,35.87
2019-06-27T21:50:55.794Z,35.93
2019-06-27T21:53:24.859Z,36.18
2019-06-27T21:55:53.903Z,36.18
2019-06-27T21:58:24.670Z,36.43
2019-06-27T22:00:55.942Z,36.62
2019-06-27T22:03:24.986Z,36.45
2019-06-27T22:05:54.068Z,36.96
2019-06-27T22:08:25.429Z,36.70
2019-06-27T22:10:55.892Z,37.21
2019-06-27T22:13:24.922Z,36.87
2019-06-27T22:15:54.722Z,36.87
2019-06-27T22:18:23.995Z,37.47
2019-06-27T22:20:52.986Z,39.08
2019-06-27T22:23:22.135Z,39.66
2019-06-27T22:25:51.205Z,41.11
2019-06-27T22:28:20.289Z,42.13
2019-06-27T22:30:49.371Z,41.61
2019-06-27T22:33:20.745Z,43.08
2019-06-27T22:35:49.839Z,43.69
2019-06-27T22:38:36.638Z,45.06
2019-06-27T22:41:29.666Z,45.18
2019-06-27T22:44:16.292Z,45.32
2019-06-27T22:47:03.196Z,46.11
2019-06-27T22:49:31.488Z,47.89
2019-06-27T22:52:31.626Z,47.78
2019-06-27T22:55:02.069Z,49.74
2019-06-27T22:57:32.865Z,49.31
2019-06-27T23:00:01.953Z,49.82
2019-06-27T23:02:30.974Z,50.11
2019-06-27T23:05:02.254Z,49.90
2019-06-27T23:07:31.275Z,50.69
2019-06-27T23:10:00.356Z,52.04
2019-06-27T23:12:29.407Z,52.00
2019-06-27T23:14:58.450Z,53.62
2019-06-27T23:17:27.494Z,54.15
2019-06-27T23:19:56.525Z,54.11
2019-06-27T23:22:25.548Z,54.50
2019-06-27T23:24:54.629Z,55.08
2019-06-27T23:27:23.638Z,55.24
2019-06-27T23:29:52.722Z,55.89
2019-06-27T23:32:21.745Z,56.29
2019-06-27T23:34:50.838Z,57.09
2019-06-27T23:37:19.963Z,58.08
2019-06-27T23:39:49.000Z,59.02
2019-06-27T23:42:18.022Z,58.71
2019-06-27T23:44:47.084Z,58.79
2019-06-27T23:47:16.191Z,60.06
2019-06-27T23:49:46.134Z,60.10
2019-06-27T23:52:15.183Z,59.73
2019-06-27T23:54:44.241Z,60.15
2019-06-27T23:57:13.374Z,59.74
2019-06-27T23:59:42.402Z,59.85
